Raleigh County Memorial Airport
KBKW : now visible

Airfield :











YOU CAN JOIN US ON...

 
LOGIN :

Register | Disclaimer

   EN    FR    IT 

 









Legend :    VFR   Marginal VFR   IFR   Intensive IFR   Very Intensive IFR
Visi :
Ceiling :
>= 8 km
>= 3000ft
5 to 8 km
1000 to 3000 ft
1500m to 5 km
500 to 1000 ft
800 to 1500m
200 to 500 ft
< 800m
< 200 ft
Symbols :   Thunderstorms  Fog  Heavy snow  Heavy precipitations  Wind > 20 kt






- Airport Elevation : 2504 ft
- IATA code : BKW


KBKW - Raleigh County Memorial

CURRENT METAR :
  • 250851Z AUTO 24004KT 10SM OVC048 05/03 A2985 RMK AO2 SLP115 T00500033 56006 $

EXPIRED METARs :
  • 250751Z AUTO 24005KT 10SM FEW020 BKN042 OVC050 06/04 A2985 RMK AO2 SLP114 T00560039 $
  • 250651Z AUTO 23005KT 10SM BKN050 06/03 A2986 RMK AO2 SLP116 T00560033 $
  • 250551Z AUTO 22004KT 10SM BKN040 OVC055 06/05 A2987 RMK AO2 RAE0458B14E27 SLP120 P0000 60002 T00610050 10083 20061 55002 $

TAF KBKW
Valid from the 25 at 08:00 until the 26 at 06:00 UTC


250812Z 2508/2606 00000KT P6SM FEW020 BKN040
FM251300 00000KT 3SM BR OVC009
FM251500 27004KT 6SM BR OVC015
FM260400 27004KT P6SM OVC010



MET'MAP, your aeronautical weather chart ! - Copyright ORBIFLY December 2007 - Disclaimer

ORBIFLY MET'MAP TEAM :

Programming & Development : Alexandra Zaïnal
Concept & original design : Baudouin d'Aumeries
Assistance for programming : Marc-Olivier Méhu
Technical & hardware support : Manuel Goepfert

Contact : metmap@orbifly.com




SOURCES & CREDITS :

   NOAA       Earth
Advisory